Current | Forecast
Updated: 10:00 PM EET on February 22, 2018
Observed at Krivvy Rih, Ukraine
Temperature -2°C
Windchill -7°C
Humidity 74%
Dew Point -6°C
Wind ENE at 18 km/h
Pressure 1021 hPa (Steady)
Conditions Overcast
Visibility 10.0 kilometers
UV 0 out of 16
Clouds Overcast (OVC) : 792 m
Yesterday's Maximum -2°C
Yesterday's Minimum -7°C approx.
Yesterday's Heating Degree Days 41 approx.
Sunrise6:43 AM EET
Sunset5:22 PM EET
Moon Rise10:00 AM EET
Moon Set
Moon PhaseMoon Phase
Waxing Crescent
Raw METARMETAR UKDR 222000Z 06005MPS 030V100 9999 OVC026 M02/M06 Q1021 R36/09//70 NOSIG


Monday
. High: 55° F.
Tuesday
. High: 64° F.
Wednesday
. High: 66° F.
Thursday
. High: 69° F.
Friday
. High: 59° F.
Saturday
. High: 57° F.
Sunday
. High: 62° F.
Monday
. High: 64° F.

Units: English | Metric

Find the Weather for any City, State or Zipcode, or Country:

U.S. State List | Severe Weather | Tropical Storms | Ski Conditions
United States | Canada | Central America | South America | Asia | Europe | Australia | Africa | Islands

Weather Underground

© Copyright 2018
The Weather Company, LLC